Time;durP1;ratioP1;P1;durP2;ratioP2;P2;SDS_P1;SDS_P2;PMS_P1;PMS_P2;Temp;Humidity;BMP_temperature;BMP_pressure;BME280_temperature;BME280_humidity;BME280_pressure;Samples;Min_cycle;Max_cycle;Signal;HPM_P1;HPM_P2
2021/11/15 00:01:36;;;;;;;6.53;2.53;;;;;;;;;;4951039;29;20078;-67
2021/11/15 00:04:06;;;;;;;9.20;2.70;;;;;;;;;;4964905;28;20065;-68
2021/11/15 00:06:37;;;;;;;9.65;3.00;;;;;;;;;;4913682;29;20055;-67
2021/11/15 00:09:09;;;;;;;14.77;3.28;;;;;;;;;;4954461;29;20066;-67
2021/11/15 00:11:40;;;;;;;10.02;2.67;;;;;;;;;;4954915;29;20066;-67
2021/11/15 00:14:10;;;;;;;9.85;2.92;;;;;;;;;;4954073;29;20070;-67
2021/11/15 00:16:42;;;;;;;13.77;3.22;;;;;;;;;;4938726;29;20063;-67
2021/11/15 00:19:13;;;;;;;15.60;3.13;;;;;;;;;;4954338;29;20067;-68
2021/11/15 00:21:44;;;;;;;11.95;3.90;;;;;;;;;;4954277;29;20407;-68
2021/11/15 00:24:15;;;;;;;13.07;3.40;;;;;;;;;;4927663;29;20063;-68
2021/11/15 00:26:46;;;;;;;13.40;4.65;;;;;;;;;;4935288;29;20056;-68
2021/11/15 00:29:17;;;;;;;16.48;5.65;;;;;;;;;;4934954;29;20051;-67
2021/11/15 00:31:48;;;;;;;16.38;3.40;;;;;;;;;;4973141;28;20053;-69
2021/11/15 00:34:18;;;;;;;13.23;2.75;;;;;;;;;;4953795;29;20043;-67
2021/11/15 00:36:49;;;;;;;18.73;3.35;;;;;;;;;;4973160;28;20051;-67
2021/11/15 00:39:19;;;;;;;22.83;3.25;;;;;;;;;;4934270;29;20064;-67
2021/11/15 00:41:50;;;;;;;13.02;3.65;;;;;;;;;;4900128;29;20056;-67
2021/11/15 00:44:20;;;;;;;13.27;3.42;;;;;;;;;;4915958;29;20783;-68
2021/11/15 00:46:51;;;;;;;14.98;3.75;;;;;;;;;;4915856;29;20108;-67
2021/11/15 00:49:22;;;;;;;9.15;3.63;;;;;;;;;;4865300;29;20060;-68
2021/11/15 00:51:53;;;;;;;14.57;3.83;;;;;;;;;;4886594;29;20061;-70
2021/11/15 00:54:23;;;;;;;11.90;3.88;;;;;;;;;;4906063;29;20083;-67
2021/11/15 00:56:54;;;;;;;12.27;3.65;;;;;;;;;;4915359;29;20060;-67
2021/11/15 00:59:26;;;;;;;11.40;4.90;;;;;;;;;;4953472;29;20051;-67
2021/11/15 01:01:57;;;;;;;12.30;3.88;;;;;;;;;;4953352;28;20051;-67
2021/11/15 01:04:28;;;;;;;12.15;3.70;;;;;;;;;;4933786;29;20063;-67
2021/11/15 01:07:01;;;;;;;10.73;4.85;;;;;;;;;;4953000;28;20078;-68
2021/11/15 01:09:32;;;;;;;13.65;3.65;;;;;;;;;;4943244;28;20385;-68
2021/11/15 01:12:03;;;;;;;15.90;4.50;;;;;;;;;;4924127;29;20060;-67
2021/11/15 01:14:33;;;;;;;13.27;4.40;;;;;;;;;;4904377;29;20048;-67
2021/11/15 01:17:05;;;;;;;19.50;3.58;;;;;;;;;;4916362;29;20062;-67
2021/11/15 01:19:36;;;;;;;13.05;4.25;;;;;;;;;;4934088;29;20435;-69
2021/11/15 01:22:07;;;;;;;19.10;4.05;;;;;;;;;;4934210;29;20060;-66
2021/11/15 01:24:37;;;;;;;11.23;3.83;;;;;;;;;;4933698;29;20058;-68
2021/11/15 01:27:10;;;;;;;13.82;4.28;;;;;;;;;;4934069;29;20059;-67
2021/11/15 01:29:41;;;;;;;15.13;4.97;;;;;;;;;;4949108;29;20055;-67
2021/11/15 01:32:12;;;;;;;15.57;5.15;;;;;;;;;;4974455;28;20058;-67
2021/11/15 01:34:43;;;;;;;15.95;3.80;;;;;;;;;;4980129;28;20054;-68
2021/11/15 01:37:13;;;;;;;14.95;5.03;;;;;;;;;;4961121;28;20060;-67
2021/11/15 01:39:45;;;;;;;13.25;4.85;;;;;;;;;;4942177;29;20061;-67
2021/11/15 01:42:16;;;;;;;14.77;6.07;;;;;;;;;;4934014;29;20067;-68
2021/11/15 01:44:46;;;;;;;16.67;4.50;;;;;;;;;;4954890;28;20600;-68
2021/11/15 01:47:18;;;;;;;15.63;3.85;;;;;;;;;;4971871;28;20059;-68
2021/11/15 01:49:49;;;;;;;9.80;3.33;;;;;;;;;;4990769;28;20058;-69
2021/11/15 01:52:19;;;;;;;13.68;3.88;;;;;;;;;;4982217;28;20050;-68
2021/11/15 01:54:50;;;;;;;11.63;3.63;;;;;;;;;;4936559;28;20055;-68
2021/11/15 01:57:21;;;;;;;15.80;3.83;;;;;;;;;;4933297;29;20093;-67
2021/11/15 01:59:52;;;;;;;11.55;4.03;;;;;;;;;;4893454;29;20048;-67
2021/11/15 02:02:26;;;;;;;20.30;4.03;;;;;;;;;;4876778;29;20061;-68
2021/11/15 02:04:57;;;;;;;17.20;3.70;;;;;;;;;;4876391;29;20064;-67
2021/11/15 02:07:28;;;;;;;10.63;3.53;;;;;;;;;;4914019;29;20093;-67
2021/11/15 02:09:59;;;;;;;13.38;4.05;;;;;;;;;;4874390;29;20176;-68
2021/11/15 02:12:30;;;;;;;15.23;4.00;;;;;;;;;;4858142;29;20049;-69
2021/11/15 02:15:00;;;;;;;7.57;3.70;;;;;;;;;;4857539;29;20058;-68
2021/11/15 02:17:32;;;;;;;14.15;3.42;;;;;;;;;;4857847;29;20061;-67
2021/11/15 02:20:05;;;;;;;;;;;;;;;;;;4858031;29;20057;-70
2021/11/15 02:22:36;;;;;;;13.43;2.92;;;;;;;;;;4854349;29;19924;-67
2021/11/15 02:25:07;;;;;;;15.30;2.95;;;;;;;;;;4814372;29;20067;-68
2021/11/15 02:27:38;;;;;;;12.88;2.78;;;;;;;;;;4864803;29;20421;-69
2021/11/15 02:30:35;;;;;;;10.68;2.75;;;;;;;;;;4868341;29;20068;-69
2021/11/15 02:33:09;;;;;;;14.25;2.97;;;;;;;;;;4882267;29;20056;-68
2021/11/15 02:35:40;;;;;;;12.75;3.05;;;;;;;;;;4912773;29;20047;-67
2021/11/15 02:38:10;;;;;;;13.20;3.50;;;;;;;;;;4936286;28;20059;-68
2021/11/15 02:40:41;;;;;;;12.15;3.38;;;;;;;;;;4932320;29;20056;-68
2021/11/15 02:43:12;;;;;;;10.55;3.90;;;;;;;;;;4932207;29;20058;-67
2021/11/15 02:45:42;;;;;;;16.98;4.57;;;;;;;;;;4866536;29;20057;-68
2021/11/15 02:48:14;;;;;;;15.73;5.22;;;;;;;;;;4871061;29;20068;-68
2021/11/15 02:50:45;;;;;;;14.43;4.50;;;;;;;;;;4891048;29;20060;-67
2021/11/15 02:53:15;;;;;;;11.45;4.43;;;;;;;;;;4921938;29;20059;-67
2021/11/15 02:55:47;;;;;;;13.82;7.10;;;;;;;;;;4932497;29;20459;-68
2021/11/15 02:58:17;;;;;;;26.65;10.52;;;;;;;;;;4899507;29;20057;-68
2021/11/15 03:01:01;;;;;;;13.93;7.65;;;;;;;;;;4886343;29;20045;-67
2021/11/15 03:03:31;;;;;;;18.83;7.95;;;;;;;;;;4835868;29;20057;-67
2021/11/15 03:06:02;;;;;;;10.32;4.65;;;;;;;;;;4860991;29;20062;-67
2021/11/15 03:08:33;;;;;;;8.95;3.90;;;;;;;;;;4835279;29;20062;-68
2021/11/15 03:11:06;;;;;;;17.38;6.18;;;;;;;;;;4869070;29;20161;-69
2021/11/15 03:13:41;;;;;;;12.88;6.13;;;;;;;;;;4857011;29;20062;-68
2021/11/15 03:16:12;;;;;;;17.15;8.10;;;;;;;;;;4912789;29;20059;-67
2021/11/15 03:18:44;;;;;;;15.30;5.72;;;;;;;;;;4944226;29;20051;-68
2021/11/15 03:21:25;;;;;;;17.23;5.05;;;;;;;;;;4938605;29;20064;-67
2021/11/15 03:23:57;;;;;;;13.88;4.15;;;;;;;;;;4946073;29;20070;-68
2021/11/15 03:26:28;;;;;;;16.95;3.88;;;;;;;;;;4951070;29;20103;-68
2021/11/15 03:29:00;;;;;;;14.65;4.35;;;;;;;;;;4951058;29;20632;-67
2021/11/15 03:31:34;;;;;;;16.67;3.80;;;;;;;;;;4916221;29;20043;-67
2021/11/15 03:34:11;;;;;;;13.63;3.90;;;;;;;;;;4932143;29;20576;-68
2021/11/15 03:36:46;;;;;;;20.08;3.85;;;;;;;;;;4878247;29;20055;-68
2021/11/15 03:39:17;;;;;;;19.17;3.33;;;;;;;;;;4867208;29;20052;-67
2021/11/15 03:41:48;;;;;;;13.70;3.53;;;;;;;;;;4865546;29;20057;-69
2021/11/15 03:44:20;;;;;;;16.38;3.40;;;;;;;;;;4845571;29;20061;-70
2021/11/15 03:46:50;;;;;;;13.82;3.47;;;;;;;;;;4860712;29;20054;-68
2021/11/15 03:49:20;;;;;;;11.52;3.67;;;;;;;;;;4860818;29;20061;-68
2021/11/15 03:51:51;;;;;;;15.75;3.95;;;;;;;;;;4860504;29;20068;-68
2021/11/15 03:54:22;;;;;;;7.03;3.35;;;;;;;;;;4887013;29;20053;-68
2021/11/15 03:56:52;;;;;;;10.60;3.63;;;;;;;;;;4924858;29;20087;-67
2021/11/15 03:59:22;;;;;;;14.02;3.60;;;;;;;;;;4938765;28;20509;-67
2021/11/15 04:01:53;;;;;;;9.52;3.13;;;;;;;;;;4954971;28;20059;-67
2021/11/15 04:04:28;;;;;;;10.15;3.30;;;;;;;;;;4978592;28;20061;-68
2021/11/15 04:06:59;;;;;;;12.07;3.38;;;;;;;;;;4993709;28;20054;-67
2021/11/15 04:09:29;;;;;;;12.43;3.67;;;;;;;;;;5005557;28;20125;-67
2021/11/15 04:12:00;;;;;;;17.75;3.50;;;;;;;;;;4992903;28;20155;-68
2021/11/15 04:14:30;;;;;;;9.10;3.58;;;;;;;;;;5015911;28;20058;-68
2021/11/15 04:17:01;;;;;;;8.30;3.13;;;;;;;;;;5032670;28;20519;-67
2021/11/15 04:19:31;;;;;;;9.57;3.90;;;;;;;;;;5032733;28;20069;-68
2021/11/15 04:22:02;;;;;;;14.48;3.95;;;;;;;;;;4993033;28;20057;-68
2021/11/15 04:24:32;;;;;;;12.00;4.00;;;;;;;;;;4993070;28;20506;-67
2021/11/15 04:27:05;;;;;;;14.88;3.63;;;;;;;;;;4992967;28;20062;-67
2021/11/15 04:29:36;;;;;;;8.65;3.65;;;;;;;;;;4976723;28;20050;-67
2021/11/15 04:32:07;;;;;;;7.13;3.15;;;;;;;;;;4993343;28;20078;-70
2021/11/15 04:34:39;;;;;;;10.20;3.67;;;;;;;;;;4993098;28;20494;-67
2021/11/15 04:37:10;;;;;;;7.70;3.58;;;;;;;;;;4988842;28;20047;-68
2021/11/15 04:39:43;;;;;;;7.30;3.15;;;;;;;;;;4943773;28;20507;-68
2021/11/15 04:42:14;;;;;;;8.68;3.38;;;;;;;;;;4992893;28;20058;-69
2021/11/15 04:44:45;;;;;;;8.95;3.90;;;;;;;;;;5008867;28;20494;-68
2021/11/15 04:47:15;;;;;;;9.48;3.60;;;;;;;;;;4981190;28;20078;-69
2021/11/15 04:49:46;;;;;;;8.25;3.95;;;;;;;;;;4951011;28;20066;-68
2021/11/15 04:52:18;;;;;;;8.48;3.17;;;;;;;;;;5011742;28;20050;-68
2021/11/15 04:54:48;;;;;;;7.63;2.95;;;;;;;;;;5012127;28;20065;-68
2021/11/15 04:57:19;;;;;;;7.53;2.97;;;;;;;;;;4979533;28;20057;-70
2021/11/15 04:59:49;;;;;;;11.15;3.33;;;;;;;;;;4995874;28;20049;-68
2021/11/15 05:02:20;;;;;;;11.15;2.85;;;;;;;;;;5011961;28;20058;-68
2021/11/15 05:04:51;;;;;;;10.20;4.75;;;;;;;;;;4979185;28;20054;-69
2021/11/15 05:07:22;;;;;;;13.15;6.53;;;;;;;;;;5011911;28;20057;-68
2021/11/15 05:09:52;;;;;;;12.93;5.47;;;;;;;;;;4995937;28;20054;-67
2021/11/15 05:12:23;;;;;;;12.88;5.15;;;;;;;;;;5011529;28;20058;-68
2021/11/15 05:14:53;;;;;;;11.77;4.45;;;;;;;;;;5001542;28;20063;-68
2021/11/15 05:17:24;;;;;;;9.43;3.75;;;;;;;;;;5007933;28;20438;-67
2021/11/15 05:19:54;;;;;;;12.90;4.55;;;;;;;;;;4969067;28;20495;-67
2021/11/15 05:22:25;;;;;;;10.18;3.60;;;;;;;;;;4953331;28;20063;-68
2021/11/15 05:24:56;;;;;;;9.45;3.53;;;;;;;;;;4930801;28;20047;-68
2021/11/15 05:27:27;;;;;;;12.85;4.18;;;;;;;;;;4972424;28;20055;-68
2021/11/15 05:29:58;;;;;;;12.27;3.95;;;;;;;;;;4972180;28;20050;-68
2021/11/15 05:32:29;;;;;;;8.68;3.72;;;;;;;;;;4972140;28;20057;-69
2021/11/15 05:35:00;;;;;;;11.00;3.90;;;;;;;;;;4956402;28;20058;-68
2021/11/15 05:37:31;;;;;;;7.35;3.72;;;;;;;;;;4981807;28;20050;-68
2021/11/15 05:40:02;;;;;;;9.73;3.45;;;;;;;;;;4952867;28;20055;-68
2021/11/15 05:42:33;;;;;;;7.32;3.63;;;;;;;;;;4968312;28;20056;-68
2021/11/15 05:45:06;;;;;;;8.45;3.50;;;;;;;;;;4929999;29;20052;-67
2021/11/15 05:47:37;;;;;;;10.95;5.35;;;;;;;;;;4914653;29;20072;-67
2021/11/15 05:50:08;;;;;;;15.15;5.32;;;;;;;;;;4914686;29;20123;-67
2021/11/15 05:52:41;;;;;;;11.40;4.45;;;;;;;;;;4914272;29;20067;-68
2021/11/15 05:55:15;;;;;;;12.02;4.10;;;;;;;;;;4914186;29;20056;-68
2021/11/15 05:57:46;;;;;;;7.53;3.50;;;;;;;;;;4910184;29;20059;-67
2021/11/15 06:00:20;;;;;;;10.60;3.40;;;;;;;;;;4933716;29;20063;-68
2021/11/15 06:02:51;;;;;;;12.77;3.90;;;;;;;;;;4932349;29;20055;-68
2021/11/15 06:05:23;;;;;;;9.20;3.63;;;;;;;;;;4933164;29;20075;-68
2021/11/15 06:07:55;;;;;;;8.40;3.70;;;;;;;;;;4921540;29;20145;-67
2021/11/15 06:10:30;;;;;;;9.90;3.97;;;;;;;;;;4951652;28;20047;-68
2021/11/15 06:13:00;;;;;;;11.68;3.60;;;;;;;;;;4955910;28;20058;-68
2021/11/15 06:15:30;;;;;;;9.68;3.80;;;;;;;;;;4959234;28;20076;-68
2021/11/15 06:18:02;;;;;;;8.82;4.05;;;;;;;;;;4948382;28;20060;-68
2021/11/15 06:20:32;;;;;;;9.10;4.10;;;;;;;;;;4945596;29;20061;-68
2021/11/15 06:23:02;;;;;;;10.52;5.18;;;;;;;;;;4939709;28;20052;-69
2021/11/15 06:25:34;;;;;;;11.13;2.95;;;;;;;;;;4933393;29;20440;-68
2021/11/15 06:28:06;;;;;;;12.93;4.35;;;;;;;;;;4932581;29;20057;-68
2021/11/15 06:30:38;;;;;;;16.88;6.38;;;;;;;;;;4957166;28;20402;-68
2021/11/15 06:33:12;;;;;;;15.40;5.35;;;;;;;;;;4990328;28;20042;-68
2021/11/15 06:35:42;;;;;;;12.15;3.92;;;;;;;;;;4951553;29;20064;-68
2021/11/15 06:38:13;;;;;;;8.35;3.45;;;;;;;;;;4936123;29;20503;-69
2021/11/15 06:40:44;;;;;;;8.63;2.97;;;;;;;;;;4924249;29;20052;-68
2021/11/15 06:43:14;;;;;;;8.82;2.95;;;;;;;;;;4932618;29;20063;-68
2021/11/15 06:45:44;;;;;;;10.50;2.85;;;;;;;;;;4932720;29;20067;-68
2021/11/15 06:48:15;;;;;;;7.90;2.97;;;;;;;;;;4917197;29;20058;-68
2021/11/15 06:50:45;;;;;;;7.70;2.63;;;;;;;;;;4932894;29;20083;-68
2021/11/15 06:53:16;;;;;;;5.68;2.60;;;;;;;;;;4932474;29;20060;-68
2021/11/15 06:55:46;;;;;;;10.65;2.78;;;;;;;;;;4943079;29;20447;-68
2021/11/15 06:58:16;;;;;;;7.68;2.60;;;;;;;;;;4903956;29;20491;-68
2021/11/15 07:00:47;;;;;;;6.28;2.80;;;;;;;;;;4951515;29;20055;-68
2021/11/15 07:03:18;;;;;;;9.73;3.03;;;;;;;;;;4881705;29;20093;-68
2021/11/15 07:05:51;;;;;;;6.57;3.10;;;;;;;;;;4938972;29;20060;-68
2021/11/15 07:08:22;;;;;;;7.75;3.38;;;;;;;;;;4945642;28;20515;-69
2021/11/15 07:10:53;;;;;;;8.05;3.03;;;;;;;;;;4971059;28;20507;-68
2021/11/15 07:13:23;;;;;;;9.13;2.83;;;;;;;;;;4990247;28;20064;-68
2021/11/15 07:15:55;;;;;;;6.53;2.70;;;;;;;;;;5010172;28;20065;-68
2021/11/15 07:18:27;;;;;;;7.07;3.08;;;;;;;;;;4989927;28;20494;-69
2021/11/15 07:20:58;;;;;;;8.30;2.90;;;;;;;;;;4990124;28;20046;-68
2021/11/15 07:23:28;;;;;;;14.80;2.88;;;;;;;;;;4989802;28;20054;-68
2021/11/15 07:26:01;;;;;;;8.93;2.75;;;;;;;;;;4973937;28;20075;-69
2021/11/15 07:28:32;;;;;;;7.95;2.90;;;;;;;;;;4970149;28;20062;-67
2021/11/15 07:31:02;;;;;;;9.00;2.90;;;;;;;;;;4970544;28;20066;-67
2021/11/15 07:33:33;;;;;;;7.15;2.60;;;;;;;;;;4950886;28;20062;-68
2021/11/15 07:36:03;;;;;;;7.15;2.85;;;;;;;;;;4961519;28;20050;-68
2021/11/15 07:38:34;;;;;;;8.77;3.03;;;;;;;;;;4931715;29;20067;-67
2021/11/15 07:41:04;;;;;;;5.65;2.70;;;;;;;;;;4940391;29;20435;-68
2021/11/15 07:43:35;;;;;;;8.88;2.92;;;;;;;;;;4932067;29;20067;-68
2021/11/15 07:46:06;;;;;;;5.85;2.45;;;;;;;;;;4932121;29;20086;-68
2021/11/15 07:48:37;;;;;;;7.70;2.65;;;;;;;;;;4950516;29;20435;-69
2021/11/15 07:51:07;;;;;;;7.15;2.80;;;;;;;;;;4951251;29;20086;-67
2021/11/15 07:53:38;;;;;;;8.18;3.00;;;;;;;;;;4950711;29;20056;-68
2021/11/15 07:56:11;;;;;;;9.57;3.25;;;;;;;;;;4947270;29;20055;-68
2021/11/15 07:58:41;;;;;;;7.13;2.88;;;;;;;;;;4893544;29;20072;-68
2021/11/15 08:01:11;;;;;;;7.78;3.38;;;;;;;;;;4893791;29;20173;-69
2021/11/15 08:03:42;;;;;;;8.35;2.80;;;;;;;;;;4893513;29;20063;-67
2021/11/15 08:06:15;;;;;;;5.93;2.67;;;;;;;;;;4884451;29;20061;-68
2021/11/15 08:08:47;;;;;;;9.70;2.90;;;;;;;;;;4875349;29;20064;-68
2021/11/15 08:11:18;;;;;;;8.27;2.85;;;;;;;;;;4875385;29;20120;-69
2021/11/15 08:13:48;;;;;;;6.28;2.58;;;;;;;;;;4874829;29;20060;-68
2021/11/15 08:16:20;;;;;;;8.93;2.75;;;;;;;;;;4883506;29;20056;-68
2021/11/15 08:18:51;;;;;;;7.28;2.72;;;;;;;;;;4883562;29;20061;-68
2021/11/15 08:21:23;;;;;;;6.57;2.65;;;;;;;;;;4875076;29;20057;-68
2021/11/15 08:23:54;;;;;;;10.18;2.80;;;;;;;;;;4890559;29;20057;-68
2021/11/15 08:26:58;;;;;;;6.55;3.03;;;;;;;;;;4897030;29;20428;-67
2021/11/15 08:29:34;;;;;;;6.95;3.10;;;;;;;;;;4859812;29;20057;-68
2021/11/15 08:32:08;;;;;;;6.63;2.65;;;;;;;;;;4845038;29;20072;-68
2021/11/15 08:34:39;;;;;;;7.20;3.03;;;;;;;;;;4859805;29;20589;-69
2021/11/15 08:37:12;;;;;;;9.00;4.20;;;;;;;;;;4877981;29;20057;-69
2021/11/15 08:39:44;;;;;;;11.68;4.80;;;;;;;;;;4929208;29;20060;-68
2021/11/15 08:42:15;;;;;;;9.57;4.80;;;;;;;;;;4935093;29;20052;-69
2021/11/15 08:44:54;;;;;;;11.13;5.15;;;;;;;;;;4935032;29;20063;-68
2021/11/15 08:47:25;;;;;;;8.65;3.67;;;;;;;;;;4918858;29;20547;-67
2021/11/15 08:49:56;;;;;;;9.57;4.40;;;;;;;;;;4934777;29;20052;-68
2021/11/15 08:52:26;;;;;;;7.57;3.63;;;;;;;;;;4951972;29;20051;-68
2021/11/15 08:54:58;;;;;;;8.50;3.58;;;;;;;;;;4898459;29;20556;-68
2021/11/15 08:57:28;;;;;;;9.35;4.03;;;;;;;;;;4894416;29;20053;-68
2021/11/15 08:59:59;;;;;;;12.90;4.25;;;;;;;;;;4896833;29;20049;-68
2021/11/15 09:02:29;;;;;;;8.95;4.20;;;;;;;;;;4896708;29;20064;-68
2021/11/15 09:04:59;;;;;;;11.15;6.65;;;;;;;;;;4913101;29;20048;-67
2021/11/15 09:07:34;;;;;;;12.70;6.50;;;;;;;;;;4954566;28;20058;-68
2021/11/15 09:10:13;;;;;;;8.85;4.00;;;;;;;;;;4972502;28;20066;-69
2021/11/15 09:12:44;;;;;;;;;;;;;;;;;;4973206;28;20051;-69
2021/11/15 09:15:16;;;;;;;8.10;4.30;;;;;;;;;;4972734;28;19922;-68
2021/11/15 09:17:46;;;;;;;9.30;3.30;;;;;;;;;;4953388;29;20063;-68
2021/11/15 09:20:17;;;;;;;11.70;3.55;;;;;;;;;;4937489;29;20070;-68
2021/11/15 09:22:49;;;;;;;6.93;3.25;;;;;;;;;;4952616;29;20066;-68
2021/11/15 09:25:20;;;;;;;15.98;7.72;;;;;;;;;;4953005;28;20043;-68
2021/11/15 09:27:50;;;;;;;14.50;6.32;;;;;;;;;;4953156;28;20508;-70
2021/11/15 09:30:21;;;;;;;9.45;3.85;;;;;;;;;;4953345;28;20055;-67
2021/11/15 09:32:51;;;;;;;12.02;4.63;;;;;;;;;;4929325;28;20499;-69
2021/11/15 09:35:22;;;;;;;12.00;5.57;;;;;;;;;;4914719;29;20056;-68
2021/11/15 09:37:52;;;;;;;13.45;5.25;;;;;;;;;;4914948;29;20495;-68
2021/11/15 09:40:26;;;;;;;15.05;5.93;;;;;;;;;;4915115;29;20060;-68
2021/11/15 09:42:58;;;;;;;10.60;5.82;;;;;;;;;;4933987;29;20060;-68
2021/11/15 09:45:28;;;;;;;12.07;5.82;;;;;;;;;;4971960;28;20055;-68
2021/11/15 09:48:01;;;;;;;9.70;4.60;;;;;;;;;;4991121;28;20510;-68
2021/11/15 09:50:32;;;;;;;14.52;4.47;;;;;;;;;;4991699;28;20058;-69
2021/11/15 09:53:04;;;;;;;11.55;5.00;;;;;;;;;;4991835;28;20164;-69
2021/11/15 09:55:36;;;;;;;14.48;5.38;;;;;;;;;;4991054;28;20069;-69
2021/11/15 09:58:06;;;;;;;16.50;6.57;;;;;;;;;;4991078;28;20054;-69
2021/11/15 10:00:39;;;;;;;14.48;6.13;;;;;;;;;;4991124;28;20054;-68
2021/11/15 10:03:12;;;;;;;22.30;7.47;;;;;;;;;;4990762;28;20054;-68
2021/11/15 10:05:44;;;;;;;12.13;6.35;;;;;;;;;;4991062;28;20494;-68
2021/11/15 10:08:15;;;;;;;18.27;8.18;;;;;;;;;;4942899;28;20054;-68
2021/11/15 10:10:56;;;;;;;14.77;7.30;;;;;;;;;;5003059;28;20065;-69
2021/11/15 10:13:30;;;;;;;17.90;10.10;;;;;;;;;;5010657;28;20058;-69
2021/11/15 10:16:07;;;;;;;15.00;6.85;;;;;;;;;;5010731;28;20058;-69
2021/11/15 10:18:40;;;;;;;26.90;10.40;;;;;;;;;;5005027;28;20066;-69
2021/11/15 10:21:21;;;;;;;21.48;10.60;;;;;;;;;;4976307;28;20155;-68
2021/11/15 10:23:57;;;;;;;15.23;7.10;;;;;;;;;;4971532;28;20059;-68
2021/11/15 10:26:30;;;;;;;16.85;7.68;;;;;;;;;;4971727;28;20061;-68
2021/11/15 10:29:33;;;;;;;15.90;8.40;;;;;;;;;;4971267;28;20050;-69
2021/11/15 10:32:29;;;;;;;14.50;8.27;;;;;;;;;;4977617;28;20045;-69
2021/11/15 10:35:03;;;;;;;13.10;7.63;;;;;;;;;;4986135;28;20059;-70
2021/11/15 10:37:37;;;;;;;14.77;7.70;;;;;;;;;;4967281;28;20459;-69
2021/11/15 10:40:14;;;;;;;15.00;7.70;;;;;;;;;;4994293;28;20095;-69
2021/11/15 10:42:48;;;;;;;13.50;7.57;;;;;;;;;;5010289;28;20505;-68
2021/11/15 10:45:25;;;;;;;12.45;5.65;;;;;;;;;;5010221;28;20425;-69
2021/11/15 10:48:01;;;;;;;13.23;5.45;;;;;;;;;;4989456;28;20050;-69
2021/11/15 10:53:28;;;;;;;12.93;3.40;;;;;;;;;;4942513;28;20565;-68
2021/11/15 10:56:16;;;;;;;4.50;2.10;;;;;;;;;;4990553;28;20419;-68
2021/11/15 10:58:52;;;;;;;6.88;2.75;;;;;;;;;;4957945;28;20050;-69
2021/11/15 11:01:31;;;;;;;6.05;2.20;;;;;;;;;;4990462;28;20065;-69
2021/11/15 11:04:16;;;;;;;11.13;2.72;;;;;;;;;;4989332;28;20062;-68
2021/11/15 11:07:08;;;;;;;8.70;2.67;;;;;;;;;;5002096;28;20052;-67
2021/11/15 11:09:45;;;;;;;7.72;3.03;;;;;;;;;;5017015;28;20085;-68
2021/11/15 11:12:22;;;;;;;8.05;2.90;;;;;;;;;;4996644;28;20056;-68
2021/11/15 11:14:58;;;;;;;8.43;2.20;;;;;;;;;;4993287;28;20053;-67
2021/11/15 11:17:28;;;;;;;8.00;2.30;;;;;;;;;;4971816;28;20061;-67
2021/11/15 11:20:49;;;;;;;5.22;2.05;;;;;;;;;;4981209;28;20059;-68
2021/11/15 11:23:19;;;;;;;9.68;2.80;;;;;;;;;;4913330;29;20067;-68
2021/11/15 11:25:53;;;;;;;12.45;2.78;;;;;;;;;;4881834;29;20056;-67
2021/11/15 11:28:46;;;;;;;7.35;2.00;;;;;;;;;;4894584;29;20056;-67
2021/11/15 11:31:17;;;;;;;6.07;2.25;;;;;;;;;;4894896;29;20076;-67
2021/11/15 11:33:48;;;;;;;8.32;2.08;;;;;;;;;;4894336;29;20092;-67
2021/11/15 11:36:19;;;;;;;4.07;2.17;;;;;;;;;;4902717;29;20052;-69
2021/11/15 11:38:52;;;;;;;6.90;2.13;;;;;;;;;;4913592;29;20060;-67
2021/11/15 11:41:22;;;;;;;8.10;2.28;;;;;;;;;;4866589;29;20052;-67
2021/11/15 11:43:53;;;;;;;5.45;2.08;;;;;;;;;;4897918;29;20044;-66
2021/11/15 11:46:24;;;;;;;9.00;2.35;;;;;;;;;;4897533;29;20052;-66
2021/11/15 11:48:57;;;;;;;9.43;2.05;;;;;;;;;;4913318;29;20567;-67
2021/11/15 11:51:29;;;;;;;7.10;2.40;;;;;;;;;;4896457;29;21137;-67
2021/11/15 11:54:10;;;;;;;11.30;4.10;;;;;;;;;;4931537;29;20048;-70
2021/11/15 11:56:43;;;;;;;4.65;2.65;;;;;;;;;;4866021;29;20064;-66
2021/11/15 11:59:15;;;;;;;;;;;;;;;;;;4885296;29;20061;-66
2021/11/15 12:02:07;;;;;;;14.20;2.38;;;;;;;;;;4879248;29;19958;-66
2021/11/15 12:05:11;;;;;;;6.10;2.40;;;;;;;;;;4859543;29;20053;-67
2021/11/15 12:07:57;;;;;;;4.90;2.40;;;;;;;;;;4860417;29;20069;-66
2021/11/15 12:11:03;;;;;;;8.48;2.60;;;;;;;;;;4860363;29;20518;-67
2021/11/15 12:13:46;;;;;;;4.80;2.35;;;;;;;;;;4860565;29;20060;-66
2021/11/15 12:16:17;;;;;;;7.03;2.33;;;;;;;;;;4841153;29;20050;-67
2021/11/15 12:19:00;;;;;;;8.57;2.30;;;;;;;;;;4860126;29;20061;-66
2021/11/15 12:21:37;;;;;;;6.03;2.10;;;;;;;;;;4856422;29;20542;-66
2021/11/15 12:24:15;;;;;;;4.65;2.30;;;;;;;;;;4832479;29;20065;-67
2021/11/15 12:26:50;;;;;;;9.23;2.55;;;;;;;;;;4841262;29;20058;-66
2021/11/15 12:29:31;;;;;;;6.20;2.58;;;;;;;;;;4851747;29;20057;-67
2021/11/15 12:32:13;;;;;;;10.25;2.42;;;;;;;;;;4840919;29;20531;-66
2021/11/15 12:34:59;;;;;;;8.60;3.33;;;;;;;;;;4853116;29;20070;-65
2021/11/15 12:37:47;;;;;;;11.55;3.15;;;;;;;;;;4873555;29;20068;-66
2021/11/15 12:40:41;;;;;;;19.02;4.03;;;;;;;;;;4847241;29;20053;-66
2021/11/15 12:43:18;;;;;;;5.47;2.40;;;;;;;;;;4915316;29;20171;-66
2021/11/15 12:46:16;;;;;;;9.77;2.72;;;;;;;;;;4934577;29;20048;-66
2021/11/15 12:48:48;;;;;;;6.90;2.33;;;;;;;;;;4916722;29;20071;-66
2021/11/15 12:51:23;;;;;;;4.82;2.10;;;;;;;;;;4915633;29;20417;-66
2021/11/15 12:53:55;;;;;;;6.78;2.00;;;;;;;;;;4933226;29;20043;-66
2021/11/15 12:56:28;;;;;;;5.43;2.58;;;;;;;;;;4944135;29;20535;-67
2021/11/15 12:58:58;;;;;;;5.70;2.17;;;;;;;;;;4918947;29;20063;-65
2021/11/15 13:01:28;;;;;;;5.75;2.38;;;;;;;;;;4865500;29;20063;-65
2021/11/15 13:03:59;;;;;;;6.93;2.47;;;;;;;;;;4896463;29;20467;-65
2021/11/15 13:06:30;;;;;;;6.20;2.42;;;;;;;;;;4905426;29;20055;-69
2021/11/15 13:09:00;;;;;;;6.13;2.80;;;;;;;;;;4930899;29;20417;-67
2021/11/15 13:11:31;;;;;;;6.70;2.38;;;;;;;;;;4933338;29;20052;-66
2021/11/15 13:14:02;;;;;;;8.13;2.60;;;;;;;;;;4915094;29;20091;-66
2021/11/15 13:16:33;;;;;;;8.00;2.10;;;;;;;;;;4900071;29;20765;-66
2021/11/15 13:19:03;;;;;;;4.18;2.15;;;;;;;;;;4915295;29;20087;-65
2021/11/15 13:21:40;;;;;;;7.05;2.08;;;;;;;;;;4885690;29;20099;-65
2021/11/15 13:24:20;;;;;;;6.82;1.85;;;;;;;;;;4877502;29;20049;-65
2021/11/15 13:26:52;;;;;;;6.03;2.05;;;;;;;;;;4918611;29;20401;-65
2021/11/15 13:29:22;;;;;;;6.38;2.55;;;;;;;;;;4927833;29;20060;-66
2021/11/15 13:31:58;;;;;;;6.78;2.13;;;;;;;;;;4933817;29;20067;-67
2021/11/15 13:34:28;;;;;;;6.40;1.95;;;;;;;;;;4934011;29;20563;-66
2021/11/15 13:36:59;;;;;;;4.57;2.28;;;;;;;;;;4939707;28;20054;-66
2021/11/15 13:39:29;;;;;;;7.38;2.30;;;;;;;;;;4972817;28;20062;-66
2021/11/15 13:42:01;;;;;;;4.32;1.80;;;;;;;;;;4988190;28;20511;-65
2021/11/15 13:44:51;;;;;;;;;;;;;;;;;;4953251;29;20451;-68
2021/11/15 13:47:21;;;;;;;6.57;1.98;;;;;;;;;;4971955;28;19930;-65
2021/11/15 13:49:52;;;;;;;18.15;10.05;;;;;;;;;;4941905;28;20469;-66
2021/11/15 13:52:24;;;;;;;3.88;2.03;;;;;;;;;;4933750;29;20063;-67
2021/11/15 13:54:56;;;;;;;9.07;2.45;;;;;;;;;;4934209;29;20104;-66
2021/11/15 13:57:28;;;;;;;6.72;2.20;;;;;;;;;;4968192;28;20119;-66
2021/11/15 13:59:59;;;;;;;8.07;2.08;;;;;;;;;;4972049;28;20066;-66
2021/11/15 14:02:34;;;;;;;4.10;1.88;;;;;;;;;;4972230;28;20062;-67
2021/11/15 14:05:05;;;;;;;;;;;;;;;;;;4941901;29;20159;-66
2021/11/15 14:07:35;;;;;;;6.68;2.10;;;;;;;;;;4952733;29;19961;-65
2021/11/15 14:10:06;;;;;;;7.28;1.80;;;;;;;;;;4946946;29;20051;-66
2021/11/15 14:12:36;;;;;;;4.72;2.10;;;;;;;;;;4971436;28;20047;-66
2021/11/15 14:15:07;;;;;;;2.95;1.67;;;;;;;;;;4971656;28;20077;-65
2021/11/15 14:17:38;;;;;;;6.00;1.73;;;;;;;;;;4908455;28;20066;-65
2021/11/15 14:20:08;;;;;;;9.35;1.63;;;;;;;;;;4971450;28;20062;-64
2021/11/15 14:22:43;;;;;;;4.82;1.38;;;;;;;;;;4970372;28;20058;-65
2021/11/15 14:25:13;;;;;;;7.60;2.00;;;;;;;;;;4971826;28;20062;-64
2021/11/15 14:28:09;;;;;;;7.18;2.17;;;;;;;;;;4971755;28;20055;-66
2021/11/15 14:30:40;;;;;;;4.38;1.23;;;;;;;;;;4971641;28;20054;-64
2021/11/15 14:33:11;;;;;;;3.05;1.58;;;;;;;;;;4971661;28;20066;-64
2021/11/15 14:35:43;;;;;;;4.78;1.55;;;;;;;;;;4946673;29;20063;-64
2021/11/15 14:38:15;;;;;;;5.07;1.52;;;;;;;;;;4952052;29;20059;-63
2021/11/15 14:40:45;;;;;;;3.13;1.42;;;;;;;;;;4951920;29;20055;-64
2021/11/15 14:43:17;;;;;;;7.22;2.00;;;;;;;;;;4949977;29;20132;-64
2021/11/15 14:45:51;;;;;;;5.82;1.45;;;;;;;;;;4951915;29;20062;-64
2021/11/15 14:48:23;;;;;;;3.92;1.50;;;;;;;;;;4966398;28;20078;-64
2021/11/15 14:50:53;;;;;;;4.95;1.20;;;;;;;;;;4941974;28;20051;-66
2021/11/15 14:53:26;;;;;;;3.33;1.10;;;;;;;;;;4918273;29;20052;-64
2021/11/15 14:55:57;;;;;;;5.07;1.52;;;;;;;;;;4913359;29;20056;-65
2021/11/15 14:58:27;;;;;;;3.50;1.25;;;;;;;;;;4899318;29;20436;-65
2021/11/15 15:00:58;;;;;;;5.50;1.25;;;;;;;;;;4894632;29;20429;-65
2021/11/15 15:03:29;;;;;;;3.47;1.50;;;;;;;;;;4875556;29;20060;-64
2021/11/15 15:05:59;;;;;;;3.65;1.33;;;;;;;;;;4875507;29;20053;-68
2021/11/15 15:08:30;;;;;;;2.42;1.52;;;;;;;;;;4876190;29;20501;-65
2021/11/15 15:11:00;;;;;;;7.03;1.30;;;;;;;;;;4876032;29;20065;-64
2021/11/15 15:13:34;;;;;;;2.33;1.35;;;;;;;;;;4898068;29;20064;-65
2021/11/15 15:16:05;;;;;;;4.43;1.60;;;;;;;;;;4913433;29;20066;-67